sensor_id;sensor_type;location;lat;lon;timestamp;P1;durP1;ratioP1;P2;durP2;ratioP2
23768;SDS011;12064;50.890;5.424;2022-09-28T00:24:09;1.10;;;0.90;;
23768;SDS011;12064;50.890;5.424;2022-09-28T00:33:41;1.40;;;0.98;;
23768;SDS011;12064;50.890;5.424;2022-09-28T00:42:32;1.10;;;0.90;;
23768;SDS011;12064;50.890;5.424;2022-09-28T00:51:23;1.50;;;0.93;;
23768;SDS011;12064;50.890;5.424;2022-09-28T01:00:15;1.90;;;1.17;;
23768;SDS011;12064;50.890;5.424;2022-09-28T01:09:06;1.25;;;1.13;;
23768;SDS011;12064;50.890;5.424;2022-09-28T01:18:06;1.98;;;1.00;;
23768;SDS011;12064;50.890;5.424;2022-09-28T01:27:31;2.20;;;0.90;;
23768;SDS011;12064;50.890;5.424;2022-09-28T01:36:39;1.70;;;0.90;;
23768;SDS011;12064;50.890;5.424;2022-09-28T01:45:43;1.25;;;0.90;;
23768;SDS011;12064;50.890;5.424;2022-09-28T01:54:42;1.92;;;0.95;;
23768;SDS011;12064;50.890;5.424;2022-09-28T02:03:47;1.15;;;1.05;;
23768;SDS011;12064;50.890;5.424;2022-09-28T02:12:47;1.52;;;0.90;;
23768;SDS011;12064;50.890;5.424;2022-09-28T02:22:07;0.77;;;0.73;;
23768;SDS011;12064;50.890;5.424;2022-09-28T02:31:17;1.30;;;1.00;;
23768;SDS011;12064;50.890;5.424;2022-09-28T02:40:16;1.70;;;0.85;;
23768;SDS011;12064;50.890;5.424;2022-09-28T03:08:07;0.88;;;0.80;;
23768;SDS011;12064;50.890;5.424;2022-09-28T03:17:10;0.70;;;0.68;;
23768;SDS011;12064;50.890;5.424;2022-09-28T03:26:02;1.00;;;0.90;;
23768;SDS011;12064;50.890;5.424;2022-09-28T03:34:56;1.90;;;0.90;;
23768;SDS011;12064;50.890;5.424;2022-09-28T03:43:48;1.13;;;0.70;;
23768;SDS011;12064;50.890;5.424;2022-09-28T03:52:38;1.10;;;0.80;;
23768;SDS011;12064;50.890;5.424;2022-09-28T04:01:29;0.77;;;0.77;;
23768;SDS011;12064;50.890;5.424;2022-09-28T04:10:23;1.30;;;0.88;;
23768;SDS011;12064;50.890;5.424;2022-09-28T04:19:14;0.90;;;0.80;;
23768;SDS011;12064;50.890;5.424;2022-09-28T04:28:05;1.13;;;0.80;;
23768;SDS011;12064;50.890;5.424;2022-09-28T04:37:15;1.02;;;0.80;;
23768;SDS011;12064;50.890;5.424;2022-09-28T04:46:06;0.87;;;0.70;;
23768;SDS011;12064;50.890;5.424;2022-09-28T04:54:56;0.70;;;0.70;;
23768;SDS011;12064;50.890;5.424;2022-09-28T05:03:54;2.03;;;0.80;;
23768;SDS011;12064;50.890;5.424;2022-09-28T05:12:45;1.17;;;0.70;;
23768;SDS011;12064;50.890;5.424;2022-09-28T05:21:36;1.58;;;0.88;;
23768;SDS011;12064;50.890;5.424;2022-09-28T05:30:26;1.23;;;1.00;;
23768;SDS011;12064;50.890;5.424;2022-09-28T05:39:17;0.80;;;0.80;;
23768;SDS011;12064;50.890;5.424;2022-09-28T05:48:14;1.50;;;0.67;;
23768;SDS011;12064;50.890;5.424;2022-09-28T05:57:04;1.42;;;0.60;;
23768;SDS011;12064;50.890;5.424;2022-09-28T06:06:01;0.90;;;0.65;;
23768;SDS011;12064;50.890;5.424;2022-09-28T06:14:52;1.65;;;0.70;;
23768;SDS011;12064;50.890;5.424;2022-09-28T06:23:43;0.80;;;0.65;;
23768;SDS011;12064;50.890;5.424;2022-09-28T06:32:33;0.88;;;0.70;;
23768;SDS011;12064;50.890;5.424;2022-09-28T06:41:24;0.60;;;0.60;;
23768;SDS011;12064;50.890;5.424;2022-09-28T06:50:15;1.30;;;0.70;;
23768;SDS011;12064;50.890;5.424;2022-09-28T06:59:05;0.80;;;0.70;;
23768;SDS011;12064;50.890;5.424;2022-09-28T07:07:56;1.00;;;0.80;;
23768;SDS011;12064;50.890;5.424;2022-09-28T07:16:53;0.70;;;0.60;;
23768;SDS011;12064;50.890;5.424;2022-09-28T07:25:44;0.77;;;0.77;;
23768;SDS011;12064;50.890;5.424;2022-09-28T07:34:36;0.70;;;0.70;;
23768;SDS011;12064;50.890;5.424;2022-09-28T07:43:32;0.70;;;0.60;;
23768;SDS011;12064;50.890;5.424;2022-09-28T07:52:35;0.93;;;0.70;;
23768;SDS011;12064;50.890;5.424;2022-09-28T08:01:26;0.80;;;0.70;;
23768;SDS011;12064;50.890;5.424;2022-09-28T08:10:19;1.42;;;0.70;;
23768;SDS011;12064;50.890;5.424;2022-09-28T08:19:10;0.87;;;0.80;;
23768;SDS011;12064;50.890;5.424;2022-09-28T08:28:04;0.70;;;0.70;;
23768;SDS011;12064;50.890;5.424;2022-09-28T08:36:58;1.00;;;0.90;;
23768;SDS011;12064;50.890;5.424;2022-09-28T08:45:48;0.80;;;0.67;;
23768;SDS011;12064;50.890;5.424;2022-09-28T08:54:50;1.23;;;0.77;;
23768;SDS011;12064;50.890;5.424;2022-09-28T09:03:47;0.73;;;0.70;;
23768;SDS011;12064;50.890;5.424;2022-09-28T09:13:22;0.70;;;0.70;;
23768;SDS011;12064;50.890;5.424;2022-09-28T09:21:57;1.45;;;0.80;;
23768;SDS011;12064;50.890;5.424;2022-09-28T09:49:49;1.20;;;0.80;;
23768;SDS011;12064;50.890;5.424;2022-09-28T09:58:52;1.08;;;0.77;;
23768;SDS011;12064;50.890;5.424;2022-09-28T10:07:51;1.40;;;0.70;;
23768;SDS011;12064;50.890;5.424;2022-09-28T10:16:51;0.82;;;0.70;;
23768;SDS011;12064;50.890;5.424;2022-09-28T10:25:44;1.10;;;0.70;;
23768;SDS011;12064;50.890;5.424;2022-09-28T10:34:37;1.48;;;0.98;;
23768;SDS011;12064;50.890;5.424;2022-09-28T10:43:31;1.42;;;0.80;;
23768;SDS011;12064;50.890;5.424;2022-09-28T10:52:31;1.00;;;0.90;;
23768;SDS011;12064;50.890;5.424;2022-09-28T11:01:28;0.98;;;0.80;;
23768;SDS011;12064;50.890;5.424;2022-09-28T11:10:40;0.85;;;0.70;;
23768;SDS011;12064;50.890;5.424;2022-09-28T11:19:31;1.00;;;0.90;;
23768;SDS011;12064;50.890;5.424;2022-09-28T11:28:31;1.05;;;0.70;;
23768;SDS011;12064;50.890;5.424;2022-09-28T11:55:52;1.65;;;0.85;;
23768;SDS011;12064;50.890;5.424;2022-09-28T12:04:55;1.45;;;0.80;;
23768;SDS011;12064;50.890;5.424;2022-09-28T12:14:25;1.27;;;0.80;;
23768;SDS011;12064;50.890;5.424;2022-09-28T12:23:21;0.80;;;0.80;;
23768;SDS011;12064;50.890;5.424;2022-09-28T12:50:18;1.15;;;0.80;;
23768;SDS011;12064;50.890;5.424;2022-09-28T12:59:27;1.08;;;0.80;;
23768;SDS011;12064;50.890;5.424;2022-09-28T13:08:44;1.13;;;0.85;;
23768;SDS011;12064;50.890;5.424;2022-09-28T13:17:50;0.80;;;0.70;;
23768;SDS011;12064;50.890;5.424;2022-09-28T13:26:57;0.90;;;0.80;;
23768;SDS011;12064;50.890;5.424;2022-09-28T13:35:53;1.05;;;0.70;;
23768;SDS011;12064;50.890;5.424;2022-09-28T13:44:48;1.35;;;0.90;;
23768;SDS011;12064;50.890;5.424;2022-09-28T14:12:26;0.70;;;0.60;;
23768;SDS011;12064;50.890;5.424;2022-09-28T14:30:24;0.93;;;0.70;;
23768;SDS011;12064;50.890;5.424;2022-09-28T14:39:21;0.60;;;0.60;;
23768;SDS011;12064;50.890;5.424;2022-09-28T14:48:51;1.10;;;0.65;;
23768;SDS011;12064;50.890;5.424;2022-09-28T14:57:43;0.83;;;0.70;;
23768;SDS011;12064;50.890;5.424;2022-09-28T15:06:47;0.80;;;0.60;;
23768;SDS011;12064;50.890;5.424;2022-09-28T15:15:41;0.77;;;0.77;;
23768;SDS011;12064;50.890;5.424;2022-09-28T15:24:35;0.80;;;0.70;;
23768;SDS011;12064;50.890;5.424;2022-09-28T15:33:30;0.70;;;0.60;;
23768;SDS011;12064;50.890;5.424;2022-09-28T15:42:44;0.60;;;0.55;;
23768;SDS011;12064;50.890;5.424;2022-09-28T15:51:44;0.90;;;0.73;;
23768;SDS011;12064;50.890;5.424;2022-09-28T16:00:41;0.75;;;0.60;;
23768;SDS011;12064;50.890;5.424;2022-09-28T16:19:03;0.82;;;0.70;;
23768;SDS011;12064;50.890;5.424;2022-09-28T16:27:57;0.77;;;0.50;;
23768;SDS011;12064;50.890;5.424;2022-09-28T16:36:48;0.60;;;0.60;;
23768;SDS011;12064;50.890;5.424;2022-09-28T16:45:39;0.85;;;0.77;;
23768;SDS011;12064;50.890;5.424;2022-09-28T16:54:31;0.67;;;0.63;;
23768;SDS011;12064;50.890;5.424;2022-09-28T17:03:40;2.80;;;0.93;;
23768;SDS011;12064;50.890;5.424;2022-09-28T17:12:35;1.23;;;0.80;;
23768;SDS011;12064;50.890;5.424;2022-09-28T17:21:26;1.02;;;0.80;;
23768;SDS011;12064;50.890;5.424;2022-09-28T17:30:20;2.50;;;0.80;;
23768;SDS011;12064;50.890;5.424;2022-09-28T17:39:25;1.30;;;1.05;;
23768;SDS011;12064;50.890;5.424;2022-09-28T17:48:17;1.70;;;0.93;;
23768;SDS011;12064;50.890;5.424;2022-09-28T17:57:11;1.13;;;0.88;;
23768;SDS011;12064;50.890;5.424;2022-09-28T18:06:06;1.27;;;1.00;;
23768;SDS011;12064;50.890;5.424;2022-09-28T18:24:30;1.30;;;0.95;;
23768;SDS011;12064;50.890;5.424;2022-09-28T18:33:24;2.17;;;1.10;;
23768;SDS011;12064;50.890;5.424;2022-09-28T18:42:29;1.13;;;1.02;;
23768;SDS011;12064;50.890;5.424;2022-09-28T18:51:20;2.78;;;1.20;;
23768;SDS011;12064;50.890;5.424;2022-09-28T19:00:12;1.10;;;1.00;;
23768;SDS011;12064;50.890;5.424;2022-09-28T19:09:04;2.97;;;0.90;;
23768;SDS011;12064;50.890;5.424;2022-09-28T19:17:54;1.03;;;0.93;;
23768;SDS011;12064;50.890;5.424;2022-09-28T19:26:46;1.10;;;1.00;;
23768;SDS011;12064;50.890;5.424;2022-09-28T19:35:42;1.92;;;1.20;;
23768;SDS011;12064;50.890;5.424;2022-09-28T19:44:36;1.43;;;1.20;;
23768;SDS011;12064;50.890;5.424;2022-09-28T19:53:29;1.80;;;1.27;;
23768;SDS011;12064;50.890;5.424;2022-09-28T20:02:28;3.15;;;1.23;;
23768;SDS011;12064;50.890;5.424;2022-09-28T20:11:19;1.50;;;0.80;;
23768;SDS011;12064;50.890;5.424;2022-09-28T20:20:10;1.40;;;0.90;;
23768;SDS011;12064;50.890;5.424;2022-09-28T20:29:04;1.73;;;1.00;;
23768;SDS011;12064;50.890;5.424;2022-09-28T20:37:56;2.33;;;1.20;;
23768;SDS011;12064;50.890;5.424;2022-09-28T20:47:04;1.40;;;1.00;;
23768;SDS011;12064;50.890;5.424;2022-09-28T20:56:17;1.40;;;1.10;;
23768;SDS011;12064;50.890;5.424;2022-09-28T21:05:12;1.23;;;0.90;;
23768;SDS011;12064;50.890;5.424;2022-09-28T21:14:04;2.25;;;1.13;;
23768;SDS011;12064;50.890;5.424;2022-09-28T21:22:57;1.33;;;1.20;;
23768;SDS011;12064;50.890;5.424;2022-09-28T21:31:48;1.92;;;1.00;;
23768;SDS011;12064;50.890;5.424;2022-09-28T21:40:38;1.60;;;1.20;;
23768;SDS011;12064;50.890;5.424;2022-09-28T21:49:33;1.35;;;1.10;;
23768;SDS011;12064;50.890;5.424;2022-09-28T21:58:24;1.20;;;1.10;;
23768;SDS011;12064;50.890;5.424;2022-09-28T22:07:17;1.50;;;1.20;;
23768;SDS011;12064;50.890;5.424;2022-09-28T22:26:01;1.30;;;0.98;;
23768;SDS011;12064;50.890;5.424;2022-09-28T22:35:00;1.17;;;0.95;;
23768;SDS011;12064;50.890;5.424;2022-09-28T22:43:51;1.20;;;1.05;;
23768;SDS011;12064;50.890;5.424;2022-09-28T22:52:43;1.60;;;1.20;;
23768;SDS011;12064;50.890;5.424;2022-09-28T23:01:34;1.10;;;1.00;;
23768;SDS011;12064;50.890;5.424;2022-09-28T23:10:24;1.40;;;1.00;;
23768;SDS011;12064;50.890;5.424;2022-09-28T23:19:15;1.15;;;1.00;;
23768;SDS011;12064;50.890;5.424;2022-09-28T23:36:59;1.42;;;1.13;;
23768;SDS011;12064;50.890;5.424;2022-09-28T23:45:57;0.87;;;0.80;;
23768;SDS011;12064;50.890;5.424;2022-09-28T23:54:48;1.23;;;1.13;;
